CheckWX is a tool to help pilots better visualize weather data.  It is not intended as a substitute for an official pre-flight weather briefing.

01:07:07 UTC

CYIN METAR
Bleibler Ranch
Bleibler Ranch, Canada
Current

28 mins ago

CYIN 240039Z AUTO 00000KT 9SM OVC021 M06/M08 A3001 RMK SLP237
Observed
Feb-24 @ 00:39 UTC
Visibility
9 SM
Flight Rules
MVFR
Cloud Levels
  • Overcast at 2,100' AGL
Temperature
-6°C / 21°F
Dewpoint
-8°C / 18°F
Humidity
86%
Altimeter
30.01" Hg
Pressure
1023.7 hPa
Previous

1 hour ago

CYIN 240002Z AUTO VRB02KT 9SM -SN OVC021 M06/M08 A3001 RMK SLP237
Observed
Feb-24 @ 00:02 UTC
Wind
  • Variable at 2 KTS
Visibility
9 SM
Flight Rules
MVFR
Conditions
Light Snow
Cloud Levels
  • Overcast at 2,100' AGL
Temperature
-6°C / 21°F
Dewpoint
-8°C / 18°F
Humidity
86%
Altimeter
30.01" Hg
Pressure
1023.7 hPa
Previous

2 hours ago

CYIN 232300Z AUTO 07004KT 060V130 9SM OVC017 M06/M07 A3000 RMK SLP236
Observed
Feb-23 @ 23:00 UTC
Wind
  • 070° at 4 KTS
Visibility
9 SM
Flight Rules
MVFR
Cloud Levels
  • Overcast at 1,700' AGL
Temperature
-6°C / 21°F
Dewpoint
-7°C / 19°F
Humidity
93%
Altimeter
30" Hg
Pressure
1023.6 hPa